Terminal Aerodrome Forecast
Issued by NWS Tampa Bay Area, FL

Home | Current Version | Previous Version | Text Only | Print | Product List | Glossary On
Versions: 1 2 3 4 5 6 7 8 9 10 11 12 13 14 15 16 17
174
FTUS42 KTBW 232354
TAFSRQ
TAF
KSRQ 232354Z 2400/2424 24008KT P6SM SCT010 BKN090
     FM240400 26006KT 6SM BR SCT007 BKN020
      TEMPO 2408/2412 4SM BR BKN007
     FM241400 28010KT P6SM SCT015 BKN050
     FM241700 27012KT P6SM FEW040 SCT250=

USA.gov is the U.S. government's official web portal to all federal, state and local government web resources and services.